NCAR-RAP Real-Time Weather Data

Output produced by METARs form (08 May 2021  16:44 UTC)
found at http://weather.rap.ucar.edu/surface/
 
KSAV 081553Z VRB05KT 10SM CLR 22/03 A3015 RMK AO2 SLP208 T02220033
KSAV 081453Z 36009KT 10SM CLR 22/04 A3014 RMK AO2 SLP205 T02220039 50001
KSAV 081353Z 36005KT 10SM CLR 20/04 A3015 RMK AO2 SLP207 T02000044
KSAV 081253Z 35006KT 10SM CLR 17/06 A3014 RMK AO2 SLP206 T01670056
KSAV 081153Z 34006KT 10SM CLR 13/06 A3014 RMK AO2 SLP204 T01280061 10128 20089 53019 $
KSAV 081053Z 31003KT 10SM CLR 10/06 A3011 RMK AO2 SLP196 T01000056
KSAV 080953Z 29003KT 10SM CLR 11/06 A3010 RMK AO2 SLP192 T01060056
KSAV 080853Z AUTO 00000KT 10SM CLR 10/06 A3008 RMK AO2 SLP184 T01000056 53002
KSAV 080753Z AUTO 28003KT 10SM CLR 11/06 A3008 RMK AO2 SLP183 T01060056
KSAV 080653Z AUTO 26005KT 10SM CLR 11/06 A3007 RMK AO2 SLP183 T01110056
KSAV 080553Z AUTO 29005KT 10SM CLR 12/06 A3007 RMK AO2 SLP183 T01170056 10211 20111 51004
KSAV 080453Z AUTO 27004KT 10SM CLR 12/06 A3007 RMK AO2 SLP182 T01220056 402560122
KSAV 080353Z 26005KT 10SM CLR 14/05 A3007 RMK AO2 SLP181 LAST T01390050
KSAV 080253Z 28006KT 10SM CLR 16/04 A3006 RMK AO2 SLP178 T01560044 53026
KSAV 080153Z 29005KT 10SM CLR 17/04 A3004 RMK AO2 SLP170 T01670039
KSAV 080053Z 32008KT 10SM CLR 19/03 A3001 RMK AO2 SLP160 T01890033
KSAV 072353Z 32012G18KT 10SM CLR 21/03 A2998 RMK AO2 SLP152 T02110033 10256 20211 53018
KSAV 072253Z 31014G22KT 10SM CLR 22/02 A2997 RMK AO2 PK WND 28026/2156 SLP146 T02220022
KSAV 072153Z 28013G22KT 10SM CLR 24/03 A2995 RMK AO2 PK WND 29028/2115 SLP140 T02390033
KSAV 072053Z 32021G26KT 10SM CLR 24/02 A2993 RMK AO2 PK WND 31030/2021 SLP134 T02440022 56009
KSAV 071953Z 30019G23KT 10SM CLR 25/02 A2994 RMK AO2 PK WND 30032/1858 SLP137 T02500022
KSAV 071853Z 29020G29KT 10SM CLR 25/02 A2995 RMK AO2 PK WND 32032/1812 SLP140 T02500017
KSAV 071753Z 30022G29KT 10SM CLR 24/02 A2996 RMK AO2 PK WND 31029/1748 SLP144 T02390022 10244 20150 58008
KSAV 071653Z 30016G28KT 10SM CLR 23/03 A2997 RMK AO2 PK WND 29032/1628 SLP149 T02330028
KSAV 071553Z 32018G26KT 10SM CLR 22/03 A2998 RMK AO2 PK WND 31031/1542 SLP152 T02220033
KSAV 071453Z 30023G31KT 10SM CLR 21/03 A2998 RMK AO2 PK WND 28031/1443 SLP152 T02110033 50005
KSAV 071353Z 29015G20KT 10SM CLR 20/07 A2999 RMK AO2 SLP153 T02000072
KSAV 071253Z 30011G21KT 10SM CLR 17/08 A2998 RMK AO2 SLP150 T01670083
KSAV 071153Z 28010G17KT 10SM CLR 15/08 A2997 RMK AO2 SLP147 T01500083 10172 20122 53010
KSAV 071053Z 27008KT 10SM CLR 13/08 A2995 RMK AO2 SLP142 T01280083
KSAV 070953Z 28008KT 10SM CLR 13/08 A2994 RMK AO2 SLP138 T01330083
KSAV 070853Z AUTO 27007KT 10SM CLR 13/08 A2994 RMK AO2 SLP137 T01280083 56006
KSAV 070753Z AUTO 27006KT 10SM CLR 13/09 A2994 RMK AO2 SLP137 T01330089
KSAV 070653Z AUTO 26006KT 10SM CLR 14/08 A2995 RMK AO2 SLP142 T01390083
KSAV 070553Z AUTO 30006KT 10SM CLR 17/08 A2996 RMK AO2 SLP144 T01720078 10250 20172 57001
KSAV 070453Z AUTO 31010KT 10SM CLR 19/08 A2996 RMK AO2 SLP144 T01890078 402940172
KSAV 070353Z 29007KT 10SM CLR 18/09 A2996 RMK AO2 SLP144 LAST T01780089
KSAV 070253Z 29005KT 10SM CLR 18/09 A2996 RMK AO2 SLP144 T01830094 51018
KSAV 070153Z 28005KT 10SM FEW050 21/07 A2995 RMK AO2 SLP141 T02060072
KSAV 070053Z 30006KT 10SM FEW200 23/08 A2994 RMK AO2 SLP137 T02280078
KSAV 062353Z 28008KT 10SM FEW060 FEW200 25/09 A2991 RMK AO2 SLP126 T02500089 10294 20250 53002
KSAV 062253Z 28012KT 10SM FEW060 FEW200 27/10 A2990 RMK AO2 SLP123 T02720100
KSAV 062153Z 30007KT 10SM FEW060 FEW200 28/11 A2989 RMK AO2 SLP121 T02780111
KSAV 062053Z 27010G18KT 10SM FEW060 FEW200 28/11 A2990 RMK AO2 SLP124 T02830106 56023
KSAV 061953Z 31011KT 280V340 10SM FEW060 SCT200 29/12 A2992 RMK AO2 SLP131 T02890117
KSAV 061853Z 29012KT 10SM FEW060 SCT200 28/12 A2994 RMK AO2 SLP136 T02830122
KSAV 061753Z 24011G15KT 10SM FEW050 FEW065 BKN200 27/13 A2997 RMK AO2 SLP147 T02670128 10278 20200 58015
KSAV 061653Z 28012G17KT 10SM FEW045 SCT200 27/14 A2999 RMK AO2 SLP156 T02720139